Time;durP1;ratioP1;P1;durP2;ratioP2;P2;SDS_P1;SDS_P2;PMS_P1;PMS_P2;Temp;Humidity;BMP_temperature;BMP_pressure;BME280_temperature;BME280_humidity;BME280_pressure;Samples;Min_cycle;Max_cycle;Signal;HPM_P1;HPM_P2
2022/05/21 00:00:41;;;;;;;14.45;9.48;;;;;;;10.50;89.44;101929.22;5029451;28;20041;-80
2022/05/21 00:03:11;;;;;;;13.20;8.93;;;;;;;10.52;89.16;101935.41;5012792;28;20112;-81
2022/05/21 00:05:36;;;;;;;13.25;9.80;;;;;;;10.52;89.26;101927.47;5013551;28;20045;-79
2022/05/21 00:08:04;;;;;;;11.75;8.85;;;;;;;10.54;89.39;101925.69;5029241;28;20060;-80
2022/05/21 00:10:31;;;;;;;11.40;9.27;;;;;;;10.56;89.49;101923.06;5029365;28;20070;-80
2022/05/21 00:12:58;;;;;;;10.32;8.80;;;;;;;10.56;89.69;101925.69;5030530;28;20025;-80
2022/05/21 00:15:26;;;;;;;14.73;10.13;;;;;;;10.58;89.58;101930.97;5030614;28;20056;-81
2022/05/21 00:17:52;;;;;;;15.70;10.38;;;;;;;10.59;89.26;101930.97;5012690;28;20033;-80
2022/05/21 00:23:30;;;;;;;14.27;8.82;;;;;;;10.65;88.89;101928.28;5033043;28;20048;-80
2022/05/21 00:26:00;;;;;;;12.77;9.18;;;;;;;10.64;89.22;101926.53;5011912;28;20552;-80
2022/05/21 00:28:27;;;;;;;11.52;8.82;;;;;;;10.65;89.30;101922.13;5033872;28;20032;-80
2022/05/21 00:30:54;;;;;;;14.18;8.95;;;;;;;10.62;89.71;101928.31;5050669;28;20345;-80
2022/05/21 00:33:20;;;;;;;12.88;9.07;;;;;;;10.67;89.31;101926.50;5015812;28;20033;-81
2022/05/21 00:35:48;;;;;;;13.15;8.82;;;;;;;10.68;89.46;101919.44;5032444;28;20040;-80
2022/05/21 00:38:14;;;;;;;13.48;8.55;;;;;;;10.69;89.05;101922.09;5016066;28;20538;-81
2022/05/21 00:40:39;;;;;;;22.52;8.10;;;;;;;10.73;88.85;101926.50;5032372;28;20025;-80
2022/05/21 00:43:06;;;;;;;14.75;8.77;;;;;;;10.74;89.04;101932.66;5051130;28;20040;-79
2022/05/21 00:45:31;;;;;;;11.38;7.20;;;;;;;10.75;89.10;101930.00;5054162;28;20025;-79
2022/05/21 00:47:57;;;;;;;11.20;7.25;;;;;;;10.74;88.93;101930.91;5003427;28;20111;-79
2022/05/21 00:50:29;;;;;;;12.75;7.80;;;;;;;10.76;89.07;101928.25;5036182;28;20045;-79
2022/05/21 00:52:57;;;;;;;12.65;7.28;;;;;;;10.76;88.94;101922.94;5032457;28;20421;-79
2022/05/21 00:55:27;;;;;;;12.23;7.00;;;;;;;10.80;88.64;101940.56;5016424;28;20025;-79
2022/05/21 01:00:44;;;;;;;16.63;7.45;;;;;;;10.82;88.56;101936.16;5035768;28;20432;-79
2022/05/21 01:03:12;;;;;;;10.52;6.45;;;;;;;10.82;88.24;101928.19;5019013;28;20041;-80
2022/05/21 01:05:38;;;;;;;13.52;7.13;;;;;;;10.84;88.46;101929.06;5035729;28;20124;-81
2022/05/21 01:08:05;;;;;;;14.65;6.45;;;;;;;10.87;88.59;101930.84;5053440;28;20450;-79
2022/05/21 01:10:37;;;;;;;11.68;6.03;;;;;;;10.90;88.45;101925.50;5019628;28;20055;-79
2022/05/21 01:13:07;;;;;;;9.63;5.38;;;;;;;10.90;88.40;101930.81;5053263;28;20059;-80
2022/05/21 01:15:37;;;;;;;12.38;5.15;;;;;;;10.94;88.10;101933.44;5053466;28;20048;-78
2022/05/21 01:18:06;;;;;;;15.75;6.00;;;;;;;10.94;88.12;101927.25;5035176;28;20161;-79
2022/05/21 01:20:41;;;;;;;11.35;5.60;;;;;;;10.94;87.85;101925.47;5053277;28;20078;-79
2022/05/21 01:23:07;;;;;;;11.45;5.97;;;;;;;10.95;87.88;101919.31;5039423;28;20056;-79
2022/05/21 01:25:35;;;;;;;18.27;5.30;;;;;;;10.95;87.85;101924.63;5035244;28;20063;-78
2022/05/21 01:28:03;;;;;;;14.23;5.50;;;;;;;10.97;88.12;101922.81;5053179;28;20102;-79
2022/05/21 01:30:39;;;;;;;13.43;5.75;;;;;;;10.98;88.21;101913.09;5055209;28;20130;-79
2022/05/21 01:33:07;;;;;;;12.15;4.80;;;;;;;11.01;88.03;101915.72;5072846;28;20374;-79
2022/05/21 01:35:33;;;;;;;10.13;5.13;;;;;;;11.01;88.03;101926.34;5059408;28;20369;-79
2022/05/21 01:37:59;;;;;;;10.18;5.15;;;;;;;11.02;87.95;101924.56;5034793;28;20079;-79
2022/05/21 01:40:25;;;;;;;13.50;5.70;;;;;;;11.01;88.15;101926.34;5054508;28;20048;-78
2022/05/21 01:45:36;;;;;;;8.75;4.32;;;;;;;11.03;88.27;101919.25;5072749;28;20036;-79
2022/05/21 01:48:02;;;;;;;14.18;5.03;;;;;;;11.04;87.80;101921.00;5054764;28;20392;-79
2022/05/21 01:50:29;;;;;;;12.23;5.18;;;;;;;11.04;87.96;101928.97;5054575;28;20048;-80
2022/05/21 01:52:55;;;;;;;14.73;5.53;;;;;;;11.05;88.22;101924.53;5021274;28;20063;-78
2022/05/21 01:55:20;;;;;;;8.50;4.68;;;;;;;11.06;87.99;101918.34;5069962;28;20037;-79
2022/05/21 01:57:46;;;;;;;11.88;5.32;;;;;;;11.08;87.84;101921.88;5020831;28;20063;-78
2022/05/21 02:00:12;;;;;;;13.25;5.25;;;;;;;11.08;87.89;101929.84;5051117;28;20040;-78
2022/05/21 02:02:38;;;;;;;16.88;5.53;;;;;;;11.09;88.12;101931.59;5034554;28;20041;-78
2022/05/21 02:05:04;;;;;;;12.27;5.43;;;;;;;11.08;87.92;101922.75;5034244;28;20024;-78
2022/05/21 02:07:30;;;;;;;17.17;6.28;;;;;;;11.08;87.85;101920.09;5034431;28;20045;-78
2022/05/21 02:09:56;;;;;;;14.20;5.80;;;;;;;11.11;88.11;101927.16;5050793;28;20037;-81
2022/05/21 02:12:21;;;;;;;10.93;5.63;;;;;;;11.10;88.45;101917.44;5034423;28;20439;-78
2022/05/21 02:14:47;;;;;;;14.27;6.35;;;;;;;11.12;88.03;101924.47;5034223;28;20045;-78
2022/05/21 02:17:15;;;;;;;18.52;6.78;;;;;;;11.11;87.87;101935.09;5034507;28;20120;-78
2022/05/21 02:19:40;;;;;;;17.10;7.32;;;;;;;11.16;88.17;101928.00;5001860;28;20043;-78
2022/05/21 02:22:06;;;;;;;13.35;6.72;;;;;;;11.15;88.06;101921.84;5015478;28;20132;-78
2022/05/21 02:24:31;;;;;;;18.85;7.28;;;;;;;11.14;88.51;101928.00;5022832;28;20369;-78
2022/05/21 02:26:57;;;;;;;11.82;6.05;;;;;;;11.19;88.30;101927.97;5034022;28;20041;-78
2022/05/21 02:29:23;;;;;;;12.45;6.97;;;;;;;11.21;87.98;101930.63;5005688;28;20071;-78
2022/05/21 02:31:51;;;;;;;17.90;7.82;;;;;;;11.21;88.28;101925.31;5014558;28;20041;-79
2022/05/21 02:34:16;;;;;;;18.05;8.38;;;;;;;11.20;87.81;101927.06;5031603;28;20061;-78
2022/05/21 02:39:25;;;;;;;18.73;7.78;;;;;;;11.22;88.50;101927.94;5016728;28;20421;-79
2022/05/21 02:41:51;;;;;;;17.98;7.68;;;;;;;11.24;88.20;101920.88;5028197;28;20037;-78
2022/05/21 02:44:17;;;;;;;17.05;8.20;;;;;;;11.28;88.13;101919.09;5051717;28;20040;-79
2022/05/21 02:46:43;;;;;;;19.55;8.30;;;;;;;11.26;88.57;101908.47;5017604;28;20021;-81
2022/05/21 02:49:09;;;;;;;17.50;7.80;;;;;;;11.28;88.22;101925.25;5033690;28;20186;-81
2022/05/21 02:51:34;;;;;;;17.02;8.07;;;;;;;11.30;88.62;101925.22;5044198;28;20033;-81
2022/05/21 02:54:00;;;;;;;17.90;9.05;;;;;;;11.31;88.47;101921.72;5031641;28;20535;-79
2022/05/21 02:56:26;;;;;;;17.88;8.60;;;;;;;11.31;88.32;101922.59;5031669;28;20053;-79
2022/05/21 02:58:51;;;;;;;16.92;8.02;;;;;;;11.34;88.47;101921.69;5031829;28;20034;-79
2022/05/21 03:01:17;;;;;;;19.75;8.25;;;;;;;11.34;88.25;101930.50;4981437;28;20041;-78
2022/05/21 03:03:42;;;;;;;16.73;8.38;;;;;;;11.34;88.33;101929.63;5031397;28;20022;-79
2022/05/21 03:06:08;;;;;;;17.38;7.97;;;;;;;11.36;88.25;101925.19;5031296;28;20049;-78
2022/05/21 03:11:18;;;;;;;20.52;8.60;;;;;;;11.36;88.46;101925.19;5030095;28;20056;-79
2022/05/21 03:13:43;;;;;;;16.70;8.07;;;;;;;11.38;88.37;101928.72;5029702;28;20493;-78
2022/05/21 03:16:09;;;;;;;17.88;9.45;;;;;;;11.41;88.62;101921.63;5030217;28;20150;-78
2022/05/21 03:18:35;;;;;;;24.65;8.65;;;;;;;11.39;88.52;101918.09;5013209;28;20038;-78
2022/05/21 03:21:01;;;;;;;23.73;9.23;;;;;;;11.41;88.62;101924.28;5013490;28;20032;-78
2022/05/21 03:23:27;;;;;;;25.17;8.85;;;;;;;11.42;88.50;101922.50;5032796;28;20090;-79
2022/05/21 03:25:53;;;;;;;18.73;9.82;;;;;;;11.46;87.95;101915.41;5013685;28;20136;-78
2022/05/21 03:28:19;;;;;;;24.67;9.25;;;;;;;11.44;88.62;101920.72;5030169;28;20112;-81
2022/05/21 03:30:46;;;;;;;21.25;11.05;;;;;;;11.44;88.63;101917.19;4997275;28;20385;-81
2022/05/21 03:33:12;;;;;;;20.10;9.70;;;;;;;11.46;88.71;101921.59;5013332;28;20037;-80
2022/05/21 03:35:41;;;;;;;17.27;9.27;;;;;;;11.47;88.37;101919.81;5013253;28;20033;-79
2022/05/21 03:38:07;;;;;;;22.80;10.50;;;;;;;11.48;88.41;101919.81;5031200;28;20084;-78
2022/05/21 03:40:33;;;;;;;22.58;9.77;;;;;;;11.49;88.33;101924.19;5016912;28;20048;-80
2022/05/21 03:42:59;;;;;;;22.98;9.90;;;;;;;11.51;88.62;101926.84;5051054;28;20098;-78
2022/05/21 03:45:25;;;;;;;22.08;10.27;;;;;;;11.52;88.70;101928.59;5050952;28;20041;-79
2022/05/21 03:47:51;;;;;;;27.27;10.50;;;;;;;11.53;88.72;101931.25;5051012;28;20028;-78
2022/05/21 03:50:23;;;;;;;23.95;11.07;;;;;;;11.53;88.59;101927.72;5016888;28;20041;-81
2022/05/21 03:52:48;;;;;;;22.50;10.45;;;;;;;11.55;88.81;101932.13;5033092;28;20030;-78
2022/05/21 03:55:14;;;;;;;26.17;11.35;;;;;;;11.56;88.72;101933.00;5029737;28;20436;-78
2022/05/21 03:57:40;;;;;;;25.40;10.63;;;;;;;11.57;88.59;101926.78;5033089;28;20068;-78
2022/05/21 04:00:10;;;;;;;21.33;9.75;;;;;;;11.57;89.02;101929.44;5031096;28;20034;-78
2022/05/21 04:02:39;;;;;;;23.02;10.77;;;;;;;11.56;88.82;101935.66;5014146;28;20037;-79
2022/05/21 04:05:06;;;;;;;23.35;10.77;;;;;;;11.55;88.75;101934.78;5013311;28;20480;-79
2022/05/21 04:07:32;;;;;;;22.85;10.77;;;;;;;11.57;88.85;101938.31;5013109;28;20069;-79
2022/05/21 04:09:57;;;;;;;25.13;10.88;;;;;;;11.59;88.96;101944.44;5029323;28;20136;-79
2022/05/21 04:12:23;;;;;;;32.78;11.18;;;;;;;11.61;88.59;101942.66;5029341;28;20029;-79
2022/05/21 04:14:48;;;;;;;23.90;10.45;;;;;;;11.65;88.78;101934.69;5029374;28;20045;-79
2022/05/21 04:17:15;;;;;;;33.13;10.55;;;;;;;11.67;88.21;101955.03;5030783;28;20076;-78
2022/05/21 04:19:41;;;;;;;33.70;11.40;;;;;;;11.65;88.19;101948.84;5033724;28;20435;-79
2022/05/21 04:22:08;;;;;;;23.73;10.85;;;;;;;11.68;88.36;101946.16;5015975;28;20045;-78
2022/05/21 04:24:34;;;;;;;23.23;9.90;;;;;;;11.70;88.39;101943.50;5029877;28;20028;-78
2022/05/21 04:26:59;;;;;;;30.02;9.93;;;;;;;11.72;88.33;101957.59;5034447;28;20381;-79
2022/05/21 04:29:25;;;;;;;22.42;9.35;;;;;;;11.71;88.20;101953.22;5012207;28;20043;-79
2022/05/21 04:31:51;;;;;;;21.33;9.57;;;;;;;11.75;87.56;101949.66;5036225;28;20592;-78
2022/05/21 04:34:17;;;;;;;22.80;9.75;;;;;;;11.73;87.77;101962.03;5019315;28;20045;-79
2022/05/21 04:36:42;;;;;;;31.58;10.65;;;;;;;11.76;88.37;101956.69;5036219;28;20124;-78
2022/05/21 04:39:09;;;;;;;28.88;10.38;;;;;;;11.76;88.18;101956.69;5019518;28;20037;-78
2022/05/21 04:41:35;;;;;;;26.60;11.20;;;;;;;11.77;87.80;101955.78;5035897;28;20025;-78
2022/05/21 04:44:02;;;;;;;24.15;10.55;;;;;;;11.78;87.73;101958.44;5035971;28;20113;-78
2022/05/21 04:46:28;;;;;;;33.13;10.35;;;;;;;11.77;87.43;101962.00;5019651;28;20041;-78
2022/05/21 04:48:54;;;;;;;25.23;10.38;;;;;;;11.75;87.72;101962.91;5035821;28;20051;-78
2022/05/21 04:51:19;;;;;;;30.98;9.30;;;;;;;11.78;87.46;101969.06;5048464;28;20033;-78
2022/05/21 04:53:45;;;;;;;25.55;9.85;;;;;;;11.77;87.85;101961.09;5032311;28;20046;-78
2022/05/21 04:56:12;;;;;;;28.60;10.35;;;;;;;11.79;87.67;101969.94;5034605;28;20037;-78
2022/05/21 04:58:37;;;;;;;27.55;10.23;;;;;;;11.78;88.25;101965.53;4999599;28;20056;-79
2022/05/21 05:01:04;;;;;;;30.67;9.85;;;;;;;11.82;88.31;101972.59;5033847;28;20045;-79
2022/05/21 05:03:30;;;;;;;31.58;10.13;;;;;;;11.85;87.89;101975.22;5033561;28;20030;-78
2022/05/21 05:05:56;;;;;;;31.60;9.35;;;;;;;11.90;88.23;101980.50;5032560;28;20055;-78
2022/05/21 05:08:24;;;;;;;25.75;8.25;;;;;;;11.92;87.47;101978.69;5016165;28;20037;-78
2022/05/21 05:10:51;;;;;;;26.83;8.50;;;;;;;11.92;87.46;101976.94;5000018;28;20063;-79
2022/05/21 05:13:17;;;;;;;27.33;8.98;;;;;;;11.93;88.17;101975.16;5032271;28;20373;-79
2022/05/21 05:15:44;;;;;;;23.85;7.75;;;;;;;12.00;87.76;101983.06;5015956;28;20047;-79
2022/05/21 05:18:13;;;;;;;23.73;8.20;;;;;;;12.00;87.57;101979.53;5033652;28;20041;-78
2022/05/21 05:20:39;;;;;;;32.78;9.25;;;;;;;11.99;87.75;101991.94;4999500;28;20030;-78
2022/05/21 05:23:05;;;;;;;29.65;8.57;;;;;;;12.06;87.89;101987.41;5037481;28;20044;-78
2022/05/21 05:25:32;;;;;;;26.33;8.25;;;;;;;12.10;87.00;101997.13;5039281;28;20057;-79
2022/05/21 05:27:58;;;;;;;24.83;8.60;;;;;;;12.07;87.19;102001.56;5016249;28;20045;-79
2022/05/21 05:30:24;;;;;;;28.77;8.65;;;;;;;12.04;87.51;101995.41;5035230;28;20090;-79
2022/05/21 05:32:49;;;;;;;28.30;9.93;;;;;;;12.05;87.50;102002.47;5052996;28;20112;-79
2022/05/21 05:35:15;;;;;;;30.88;8.90;;;;;;;12.08;87.40;102001.56;5053389;28;20048;-79
2022/05/21 05:37:41;;;;;;;26.00;8.25;;;;;;;12.12;87.49;101999.78;5053244;28;20033;-78
2022/05/21 05:40:13;;;;;;;24.17;8.82;;;;;;;12.13;86.78;102007.69;5052371;28;20077;-79
2022/05/21 05:42:39;;;;;;;26.10;9.35;;;;;;;12.13;87.13;102007.69;5015360;28;20037;-79
2022/05/21 05:45:07;;;;;;;24.90;9.38;;;;;;;12.11;86.68;102004.19;4999414;28;20041;-79
2022/05/21 05:47:33;;;;;;;28.63;9.63;;;;;;;12.14;86.69;102020.09;5033286;28;20045;-79
2022/05/21 05:50:00;;;;;;;28.52;9.55;;;;;;;12.09;87.45;102013.97;5015300;28;20120;-79
2022/05/21 05:52:26;;;;;;;22.85;9.27;;;;;;;12.19;87.48;102010.31;5014988;28;20188;-79
2022/05/21 05:54:52;;;;;;;26.35;9.38;;;;;;;12.22;87.05;102010.28;5031275;28;20485;-79
2022/05/21 05:57:18;;;;;;;31.95;10.25;;;;;;;12.29;86.31;102010.19;5023793;28;20044;-79
2022/05/21 05:59:49;;;;;;;32.08;10.35;;;;;;;12.36;87.01;102010.13;5034527;28;20190;-78
2022/05/21 06:05:09;;;;;;;34.22;9.55;;;;;;;12.59;86.61;102001.03;5052545;28;20063;-79
2022/05/21 06:07:47;;;;;;;29.90;9.40;;;;;;;12.60;85.82;102010.75;5035238;28;20337;-78
2022/05/21 06:10:16;;;;;;;30.80;8.55;;;;;;;12.60;85.28;102013.41;5034788;28;20036;-80
2022/05/21 06:12:42;;;;;;;23.50;8.30;;;;;;;12.59;85.34;102009.00;5051093;28;20032;-78
2022/05/21 06:15:09;;;;;;;28.65;8.75;;;;;;;12.58;85.30;102021.41;5034569;28;20051;-79
2022/05/21 06:17:36;;;;;;;27.98;9.20;;;;;;;12.68;85.66;102017.75;5034866;28;20170;-78
2022/05/21 06:20:02;;;;;;;30.10;9.02;;;;;;;12.73;84.88;102012.38;5052313;28;20073;-78
2022/05/21 06:22:27;;;;;;;16.80;7.05;;;;;;;12.72;84.74;102015.06;5054276;28;20097;-79
2022/05/21 06:24:53;;;;;;;24.58;8.77;;;;;;;12.70;85.54;102031.88;5043676;28;20111;-78
2022/05/21 06:27:18;;;;;;;29.25;9.38;;;;;;;12.70;85.26;102023.91;5054568;28;20067;-78
2022/05/21 06:29:46;;;;;;;26.73;9.18;;;;;;;12.69;84.52;102031.91;5038957;28;20041;-78
2022/05/21 06:32:12;;;;;;;24.38;8.27;;;;;;;12.71;85.58;102038.09;5034593;28;20044;-78
2022/05/21 06:34:38;;;;;;;38.75;9.20;;;;;;;12.79;84.85;102024.72;5017433;28;20029;-78
2022/05/21 06:37:05;;;;;;;24.20;8.32;;;;;;;12.92;84.33;102036.94;5052492;28;20131;-78
2022/05/21 06:39:32;;;;;;;32.13;9.02;;;;;;;13.06;84.16;102036.78;5052091;28;20095;-78
2022/05/21 06:41:58;;;;;;;31.35;9.60;;;;;;;13.19;83.09;102041.03;5067711;28;20366;-79
2022/05/21 06:44:26;;;;;;;28.90;7.65;;;;;;;13.27;82.17;102041.81;5021632;28;20039;-79
2022/05/21 06:46:53;;;;;;;25.23;7.55;;;;;;;13.42;81.17;102053.16;5072129;28;20037;-78
2022/05/21 06:49:19;;;;;;;28.20;7.18;;;;;;;13.45;81.02;102048.69;5045314;28;20404;-78
2022/05/21 06:51:45;;;;;;;25.73;7.05;;;;;;;13.49;80.25;102055.72;5050416;28;20043;-78
2022/05/21 06:54:13;;;;;;;24.20;7.03;;;;;;;13.51;79.72;102059.22;5048827;28;20040;-79
2022/05/21 06:56:40;;;;;;;18.77;6.30;;;;;;;13.50;79.48;102051.25;5049733;28;20553;-78
2022/05/21 06:59:05;;;;;;;25.52;6.10;;;;;;;13.51;78.72;102058.34;5042715;28;20036;-78
2022/05/21 07:01:31;;;;;;;25.67;6.68;;;;;;;13.55;79.15;102046.78;5050963;28;20112;-78
2022/05/21 07:03:56;;;;;;;21.70;6.75;;;;;;;13.64;79.64;102049.28;5051132;28;20036;-78
2022/05/21 07:09:07;;;;;;;28.33;7.95;;;;;;;13.66;77.89;102052.81;5033581;28;20052;-78
2022/05/21 07:11:32;;;;;;;24.52;7.32;;;;;;;13.70;78.24;102057.19;5033599;28;20419;-79
2022/05/21 07:13:58;;;;;;;29.17;6.68;;;;;;;13.81;78.49;102061.47;5033412;28;20190;-80
2022/05/21 07:16:24;;;;;;;27.52;7.97;;;;;;;13.76;78.61;102058.88;5033704;28;20457;-79
2022/05/21 07:18:50;;;;;;;27.23;7.57;;;;;;;13.76;79.14;102064.19;5051329;28;20037;-80
2022/05/21 07:21:18;;;;;;;26.13;8.00;;;;;;;13.83;78.55;102068.53;5051643;28;20059;-80
2022/05/21 07:23:45;;;;;;;23.70;7.25;;;;;;;13.91;77.47;102071.94;5032717;28;20013;-81
2022/05/21 07:26:11;;;;;;;23.15;6.72;;;;;;;13.93;77.45;102075.44;5053556;28;20063;-83
2022/05/21 07:28:37;;;;;;;27.98;7.00;;;;;;;14.00;76.25;102078.91;5071225;28;20093;-80
2022/05/21 07:31:04;;;;;;;21.08;5.57;;;;;;;14.04;74.82;102083.25;5071106;28;20040;-80
2022/05/21 07:33:29;;;;;;;19.33;5.63;;;;;;;13.98;74.71;102075.38;5070815;28;20052;-81
2022/05/21 07:35:55;;;;;;;20.00;6.05;;;;;;;14.02;74.69;102076.19;5050691;28;20033;-80
2022/05/21 07:38:20;;;;;;;24.95;6.47;;;;;;;14.10;74.79;102071.66;5033769;28;20346;-81
2022/05/21 07:40:47;;;;;;;18.92;5.30;;;;;;;14.12;75.66;102088.44;5033298;28;20112;-81
2022/05/21 07:43:21;;;;;;;19.08;5.45;;;;;;;14.18;74.21;102083.03;5032694;28;20217;-80
2022/05/21 07:45:47;;;;;;;19.90;5.63;;;;;;;14.27;75.17;102095.31;5049510;28;20110;-80
2022/05/21 07:48:15;;;;;;;22.08;6.30;;;;;;;14.30;74.34;102090.81;5032939;28;20048;-80
2022/05/21 07:50:44;;;;;;;21.40;6.60;;;;;;;14.30;75.28;102090.81;5033055;28;20036;-80
2022/05/21 07:53:19;;;;;;;26.45;7.28;;;;;;;14.31;74.47;102091.69;5053238;28;20087;-80
2022/05/21 07:55:48;;;;;;;22.02;6.32;;;;;;;14.35;75.24;102099.59;5053445;28;20029;-80
2022/05/21 07:58:16;;;;;;;25.90;7.07;;;;;;;14.39;74.29;102093.34;5062027;28;20148;-81
2022/05/21 08:00:42;;;;;;;23.75;5.97;;;;;;;14.37;73.55;102091.59;5037053;28;20052;-81
2022/05/21 08:03:08;;;;;;;22.73;5.88;;;;;;;14.52;74.10;102096.66;5054472;28;20045;-80
2022/05/21 08:05:34;;;;;;;18.35;6.32;;;;;;;14.58;73.70;102095.69;5036884;28;20057;-80
2022/05/21 08:08:01;;;;;;;19.10;5.35;;;;;;;14.70;74.72;102097.25;5052956;28;20043;-80
2022/05/21 08:10:27;;;;;;;22.75;5.97;;;;;;;14.74;73.17;102101.63;5053213;28;20063;-80
2022/05/21 08:12:53;;;;;;;20.73;6.53;;;;;;;14.89;72.86;102097.78;5036361;28;20519;-80
2022/05/21 08:15:21;;;;;;;25.45;6.75;;;;;;;15.02;71.97;102110.81;5036389;28;20037;-80
2022/05/21 08:17:46;;;;;;;24.80;7.07;;;;;;;15.16;72.90;102109.69;5054347;28;20328;-80
2022/05/21 08:20:13;;;;;;;22.55;6.97;;;;;;;15.20;71.58;102114.91;5035900;28;20485;-80
2022/05/21 08:28:08;;;;;;;21.60;5.97;;;;;;;15.31;70.15;102109.34;5036682;28;20064;-80
2022/05/21 08:30:33;;;;;;;27.33;7.05;;;;;;;15.29;70.08;102107.63;5055739;28;20036;-81
2022/05/21 08:33:00;;;;;;;22.25;6.20;;;;;;;15.38;70.25;102099.41;5072206;28;20036;-80
2022/05/21 08:35:27;;;;;;;27.80;5.90;;;;;;;15.43;70.48;102100.19;5039535;28;20036;-80
2022/05/21 08:37:53;;;;;;;18.92;5.50;;;;;;;15.59;69.16;102103.41;5037834;28;20042;-80
2022/05/21 08:40:19;;;;;;;22.23;5.90;;;;;;;15.67;68.04;102104.97;5052021;28;20122;-80
2022/05/21 08:42:54;;;;;;;19.05;5.03;;;;;;;15.57;68.21;102107.88;5053787;28;20068;-80
2022/05/21 08:45:26;;;;;;;18.92;4.88;;;;;;;15.46;66.98;102117.03;5054191;28;20047;-80
2022/05/21 08:48:03;;;;;;;18.08;4.80;;;;;;;15.52;68.13;102116.00;5034648;28;20037;-80
2022/05/21 08:50:33;;;;;;;13.60;4.00;;;;;;;15.71;66.75;102110.28;5048113;28;20063;-80
2022/05/21 08:53:06;;;;;;;20.08;4.55;;;;;;;15.94;67.23;102107.94;5034987;28;20045;-81
2022/05/21 08:55:43;;;;;;;22.90;5.20;;;;;;;15.86;65.76;102110.81;5052915;28;20242;-81
2022/05/21 08:58:17;;;;;;;16.90;4.38;;;;;;;15.70;66.18;102109.38;5050517;28;20420;-81
2022/05/21 09:00:45;;;;;;;13.25;4.57;;;;;;;15.72;66.97;102099.56;5053502;28;20392;-80
2022/05/21 09:03:14;;;;;;;20.40;4.25;;;;;;;15.86;67.87;102101.91;5052967;28;20112;-80
2022/05/21 09:05:45;;;;;;;20.17;5.15;;;;;;;16.10;66.78;102097.78;5035027;28;20056;-80
2022/05/21 09:08:18;;;;;;;;;;;;;;;16.38;67.29;102083.69;5052389;28;20100;-80
2022/05/21 09:11:01;;;;;;;19.85;4.57;;;;;;;16.76;64.99;102091.56;5035628;28;19919;-81
2022/05/21 09:13:52;;;;;;;14.70;3.85;;;;;;;16.91;62.96;102084.06;5051788;28;20037;-80
2022/05/21 09:19:08;;;;;;;22.73;5.10;;;;;;;16.90;63.55;102085.84;5053209;28;20123;-80
2022/05/21 09:21:39;;;;;;;16.70;5.22;;;;;;;16.70;62.83;102091.72;5053313;28;20072;-80
2022/05/21 09:24:07;;;;;;;21.50;6.15;;;;;;;16.52;64.01;102095.78;5058692;28;20075;-80
2022/05/21 09:26:51;;;;;;;17.42;4.65;;;;;;;16.44;63.57;102099.56;5038770;28;20119;-81
2022/05/21 09:29:21;;;;;;;19.17;5.28;;;;;;;16.61;63.86;102091.97;5042156;28;20143;-80
2022/05/21 09:31:46;;;;;;;23.80;4.40;;;;;;;16.85;62.75;102087.78;5053090;28;20040;-81
2022/05/21 09:34:31;;;;;;;15.25;3.92;;;;;;;17.24;64.14;102084.00;5051134;28;20037;-80
2022/05/21 09:36:58;;;;;;;13.07;3.33;;;;;;;17.31;60.59;102082.88;5035301;28;20037;-81
2022/05/21 09:39:38;;;;;;;17.83;3.28;;;;;;;17.21;59.16;102095.69;5034711;28;20041;-80
2022/05/21 09:45:22;;;;;;;15.70;3.22;;;;;;;16.54;60.29;102110.00;5072242;28;20036;-80
2022/05/21 09:47:49;;;;;;;16.67;4.57;;;;;;;16.48;61.94;102110.16;5037748;28;20510;-80
2022/05/21 09:50:21;;;;;;;15.93;3.50;;;;;;;16.50;62.11;102111.00;5072283;28;20476;-80
2022/05/21 09:52:47;;;;;;;15.25;3.80;;;;;;;16.47;62.04;102108.41;5055104;28;20392;-80
2022/05/21 09:55:26;;;;;;;20.70;4.40;;;;;;;16.69;62.76;102111.38;5034491;28;20047;-80
2022/05/21 09:57:52;;;;;;;15.07;4.18;;;;;;;16.72;61.40;102097.91;5035132;28;20044;-80
2022/05/21 10:00:33;;;;;;;22.17;4.40;;;;;;;16.74;61.78;102105.88;5064895;28;20131;-80
2022/05/21 10:03:00;;;;;;;14.93;3.60;;;;;;;16.70;61.95;102109.59;5051086;28;20327;-81
2022/05/21 10:05:35;;;;;;;18.02;4.20;;;;;;;16.71;62.17;102106.84;5052648;28;20029;-80
2022/05/21 10:11:28;;;;;;;17.83;4.28;;;;;;;17.27;60.60;102106.19;4990745;28;20062;-80
2022/05/21 10:14:03;;;;;;;18.38;3.97;;;;;;;17.25;60.47;102108.03;4988562;28;20355;-80
2022/05/21 10:16:48;;;;;;;10.50;3.13;;;;;;;17.22;60.84;102107.25;4994861;28;20623;-80
2022/05/21 10:19:33;;;;;;;16.38;4.60;;;;;;;16.92;60.59;102109.91;5034448;28;20037;-80
2022/05/21 10:22:14;;;;;;;15.57;4.05;;;;;;;16.85;61.38;102105.63;5033362;28;20072;-80
2022/05/21 10:24:55;;;;;;;;;;;;;;;17.04;61.46;102106.88;5053394;28;20439;-81
2022/05/21 10:27:34;;;;;;;18.17;4.18;;;;;;;17.09;59.67;102102.28;5052397;28;19916;-80
2022/05/21 10:30:13;;;;;;;20.67;4.72;;;;;;;17.07;60.33;102095.22;5052770;28;20036;-81
2022/05/21 10:32:54;;;;;;;19.75;4.63;;;;;;;17.01;61.35;102109.63;5053765;28;20055;-80
2022/05/21 10:35:48;;;;;;;17.52;4.53;;;;;;;16.86;61.00;102110.94;5051762;28;20036;-80
2022/05/21 10:38:26;;;;;;;16.17;4.07;;;;;;;16.75;61.51;102126.38;5051880;28;20456;-81
2022/05/21 10:41:24;;;;;;;15.13;3.83;;;;;;;16.64;61.89;102115.97;5058794;28;20037;-81
2022/05/21 10:43:58;;;;;;;16.20;4.18;;;;;;;16.64;62.14;102123.09;5017428;28;20060;-80
2022/05/21 10:46:51;;;;;;;15.95;4.13;;;;;;;17.03;61.79;102136.34;5058774;28;20372;-81
2022/05/21 10:49:35;;;;;;;17.15;4.85;;;;;;;17.47;60.21;102116.31;5054619;28;20384;-81
2022/05/21 10:52:08;;;;;;;21.27;4.63;;;;;;;17.74;58.81;102121.75;5036321;28;20503;-82
2022/05/21 10:54:49;;;;;;;21.02;4.57;;;;;;;17.73;57.90;102120.88;5052621;28;20098;-81
2022/05/21 10:57:28;;;;;;;13.07;4.85;;;;;;;17.58;59.03;102121.31;5048566;28;20051;-80
2022/05/21 11:00:16;;;;;;;16.33;4.30;;;;;;;17.58;60.71;102115.97;5050665;28;20094;-81
2022/05/21 11:02:47;;;;;;;12.40;3.50;;;;;;;17.76;58.61;102126.13;5066611;28;20476;-82
2022/05/21 11:05:28;;;;;;;12.57;3.45;;;;;;;17.75;58.13;102127.03;5051287;28;20400;-81
2022/05/21 11:08:21;;;;;;;18.73;3.92;;;;;;;17.85;58.46;102122.28;5051395;28;20032;-81
2022/05/21 11:11:02;;;;;;;12.20;3.20;;;;;;;17.63;57.85;102125.63;5023678;28;20074;-81
2022/05/21 11:13:40;;;;;;;14.65;3.63;;;;;;;17.40;58.80;102131.66;5071251;28;20472;-81
2022/05/21 11:17:05;;;;;;;15.30;3.67;;;;;;;17.40;58.52;102138.84;5061033;28;20102;-81
2022/05/21 11:19:44;;;;;;;13.80;3.35;;;;;;;17.57;58.44;102139.19;4982435;28;20038;-81
2022/05/21 11:22:16;;;;;;;16.50;3.03;;;;;;;17.89;56.67;102144.53;5047533;28;20040;-81
2022/05/21 11:24:57;;;;;;;16.75;3.30;;;;;;;18.08;56.42;102134.09;5059518;28;20165;-81
2022/05/21 11:27:34;;;;;;;13.35;2.97;;;;;;;18.27;56.39;102127.19;5058909;28;20036;-81
2022/05/21 11:30:08;;;;;;;10.15;2.65;;;;;;;18.47;54.59;102135.44;5050684;28;20453;-84
2022/05/21 11:38:33;;;;;;;;;;;;;;;19.06;52.83;102120.84;5050738;28;20039;-81
2022/05/21 11:46:48;;;;;;;14.48;3.22;;;;;;;19.31;50.98;102122.59;5044954;28;20049;-81
2022/05/21 11:49:39;;;;;;;12.20;2.75;;;;;;;19.49;52.78;102104.91;5063490;28;20388;-81
2022/05/21 11:52:27;;;;;;;16.48;3.67;;;;;;;19.41;52.04;102123.13;5023785;28;20029;-80
2022/05/21 11:55:09;;;;;;;13.00;2.67;;;;;;;19.69;52.44;102110.41;5052822;28;20120;-80
2022/05/21 11:57:38;;;;;;;11.35;3.05;;;;;;;20.04;50.72;102107.22;5043192;28;20053;-80
2022/05/21 12:00:27;;;;;;;10.60;2.90;;;;;;;20.31;49.06;102113.25;5031027;28;20108;-81
2022/05/21 12:02:58;;;;;;;10.27;2.78;;;;;;;20.13;48.23;102113.09;5030418;28;20053;-80
2022/05/21 12:05:37;;;;;;;12.00;3.25;;;;;;;19.59;50.22;102122.44;5029679;28;20107;-81
2022/05/21 12:08:15;;;;;;;9.82;2.88;;;;;;;19.35;51.58;102118.88;5029266;28;20429;-80
2022/05/21 12:11:02;;;;;;;10.45;2.83;;;;;;;19.72;52.31;102120.16;5029193;28;20076;-80
2022/05/21 12:13:33;;;;;;;11.88;3.15;;;;;;;19.94;51.00;102112.97;5030431;28;20048;-80